Time;durP1;ratioP1;P1;durP2;ratioP2;P2;SDS_P1;SDS_P2;PMS_P1;PMS_P2;Temp;Humidity;BMP_temperature;BMP_pressure;BME280_temperature;BME280_humidity;BME280_pressure;Samples;Min_cycle;Max_cycle;Signal;HPM_P1;HPM_P2
2021/01/10 00:00:13;;;;;;;3.45;2.35;;;24.50;29.40;;;;;;5012217;28;20491;-75
2021/01/10 00:02:40;;;;;;;3.38;2.80;;;24.50;29.50;;;;;;5030953;28;20735;-67
2021/01/10 00:05:08;;;;;;;3.17;2.70;;;24.40;29.40;;;;;;5031044;28;20410;-71
2021/01/10 00:07:34;;;;;;;3.60;2.67;;;24.40;29.50;;;;;;5030402;28;20444;-73
2021/01/10 00:10:00;;;;;;;4.25;2.80;;;24.30;29.30;;;;;;5031078;28;20406;-83
2021/01/10 00:12:27;;;;;;;3.22;2.92;;;24.30;29.60;;;;;;5030982;28;20748;-73
2021/01/10 00:14:53;;;;;;;3.15;2.85;;;24.30;29.40;;;;;;5029634;28;20937;-67
2021/01/10 00:17:19;;;;;;;3.33;3.00;;;24.20;29.60;;;;;;5031203;28;20391;-83
2021/01/10 00:19:47;;;;;;;3.78;2.67;;;24.20;29.50;;;;;;5029868;28;20898;-77
2021/01/10 00:22:14;;;;;;;3.17;2.80;;;24.20;29.70;;;;;;5028115;28;20807;-78
2021/01/10 00:24:42;;;;;;;3.05;2.75;;;24.20;29.70;;;;;;5031044;28;20406;-73
2021/01/10 00:27:13;;;;;;;3.20;2.90;;;24.10;29.60;;;;;;5026815;28;20399;-64
2021/01/10 00:29:41;;;;;;;3.30;3.00;;;24.10;29.60;;;;;;5023179;28;20395;-60
2021/01/10 00:32:07;;;;;;;4.18;2.60;;;24.00;29.50;;;;;;5027598;28;20390;-66
2021/01/10 00:34:33;;;;;;;4.50;3.00;;;24.00;29.70;;;;;;5029867;28;20411;-73
2021/01/10 00:36:58;;;;;;;3.80;3.03;;;24.00;29.60;;;;;;5029838;28;20395;-67
2021/01/10 00:39:24;;;;;;;4.45;2.92;;;24.00;29.70;;;;;;5028854;28;20418;-68
2021/01/10 00:41:50;;;;;;;3.27;2.70;;;23.90;29.70;;;;;;5026563;28;20734;-60
2021/01/10 00:44:16;;;;;;;3.50;3.13;;;23.90;29.70;;;;;;5030006;28;20482;-65
2021/01/10 00:46:42;;;;;;;3.45;3.03;;;23.90;29.80;;;;;;5029711;28;20383;-68
2021/01/10 00:49:08;;;;;;;3.55;2.88;;;23.90;29.80;;;;;;5029894;28;20445;-60
2021/01/10 00:51:33;;;;;;;3.47;3.17;;;23.90;29.70;;;;;;5029654;28;20395;-59
2021/01/10 00:53:59;;;;;;;3.67;3.30;;;23.80;29.80;;;;;;5029902;28;20461;-62
2021/01/10 00:56:24;;;;;;;4.22;3.40;;;23.80;29.90;;;;;;5029912;28;20752;-75
2021/01/10 00:58:51;;;;;;;4.13;3.33;;;23.80;29.80;;;;;;5029801;28;20520;-74
2021/01/10 01:01:16;;;;;;;3.72;3.33;;;23.70;29.80;;;;;;5029868;28;20460;-77
2021/01/10 01:03:42;;;;;;;4.05;3.28;;;23.70;29.70;;;;;;5015232;28;20785;-75
2021/01/10 01:06:12;;;;;;;4.23;3.57;;;23.60;29.80;;;;;;5034116;28;20482;-72
2021/01/10 01:08:37;;;;;;;4.00;3.30;;;23.60;29.80;;;;;;5033672;28;20791;-80
2021/01/10 01:11:03;;;;;;;4.87;3.53;;;23.60;30.00;;;;;;5033644;28;20469;-81
2021/01/10 01:13:29;;;;;;;3.30;3.00;;;23.60;29.80;;;;;;5033523;28;20954;-65
2021/01/10 01:15:55;;;;;;;4.25;3.40;;;23.50;29.90;;;;;;5032950;28;20398;-73
2021/01/10 01:18:21;;;;;;;4.10;3.40;;;23.50;29.90;;;;;;5032462;28;20907;-65
2021/01/10 01:20:46;;;;;;;3.95;3.42;;;23.50;29.90;;;;;;5033029;28;20446;-73
2021/01/10 01:23:12;;;;;;;3.97;3.40;;;23.50;29.90;;;;;;5033234;28;20387;-60
2021/01/10 01:25:39;;;;;;;3.75;3.38;;;23.40;29.90;;;;;;5031985;28;20925;-59
2021/01/10 01:28:05;;;;;;;4.03;3.63;;;23.40;29.90;;;;;;5032931;28;20411;-73
2021/01/10 01:30:31;;;;;;;3.80;3.40;;;23.40;29.90;;;;;;5032637;28;20406;-61
2021/01/10 01:32:56;;;;;;;4.03;3.63;;;23.40;30.40;;;;;;5032344;28;20399;-75
2021/01/10 01:35:22;;;;;;;3.93;3.47;;;23.30;29.70;;;;;;5033284;28;20483;-72
2021/01/10 01:37:48;;;;;;;4.00;3.35;;;23.30;29.90;;;;;;5032793;28;20410;-63
2021/01/10 01:40:14;;;;;;;5.07;3.50;;;23.30;29.90;;;;;;5033034;28;20423;-78
2021/01/10 01:42:39;;;;;;;3.80;3.40;;;23.30;29.50;;;;;;5033382;28;20509;-65
2021/01/10 01:45:08;;;;;;;3.90;3.30;;;23.20;29.70;;;;;;5033463;28;20438;-72
2021/01/10 01:47:34;;;;;;;4.65;3.50;;;23.20;29.70;;;;;;5033276;28;20399;-70
2021/01/10 01:50:02;;;;;;;4.10;3.70;;;23.20;29.70;;;;;;5032609;28;20457;-63
2021/01/10 01:52:28;;;;;;;4.60;3.78;;;23.20;29.60;;;;;;5030321;28;20423;-60
2021/01/10 01:54:56;;;;;;;3.70;3.30;;;23.10;29.50;;;;;;5032829;28;20419;-79
2021/01/10 01:57:22;;;;;;;4.65;3.70;;;23.10;29.60;;;;;;5033240;28;20416;-73
2021/01/10 01:59:47;;;;;;;3.85;3.47;;;23.10;29.60;;;;;;5031827;28;20422;-72
2021/01/10 02:02:13;;;;;;;4.37;3.70;;;23.10;29.60;;;;;;5032178;28;20391;-60
2021/01/10 02:05:03;;;;;;;4.05;3.45;;;23.00;29.60;;;;;;5031856;28;20403;-66
2021/01/10 02:07:40;;;;;;;3.97;3.50;;;23.00;29.60;;;;;;5028718;28;20406;-68
2021/01/10 02:10:09;;;;;;;4.07;3.67;;;23.00;29.50;;;;;;5032778;28;20403;-72
2021/01/10 02:12:51;;;;;;;4.00;3.50;;;23.00;29.70;;;;;;5032891;28;20391;-70
2021/01/10 02:15:21;;;;;;;4.30;3.60;;;22.90;29.60;;;;;;5032884;28;20771;-72
2021/01/10 02:17:49;;;;;;;4.10;3.70;;;22.90;29.60;;;;;;5027911;28;20401;-69
2021/01/10 02:20:20;;;;;;;3.80;3.40;;;22.90;29.60;;;;;;5028385;28;20423;-73
2021/01/10 02:22:59;;;;;;;3.90;3.50;;;22.80;29.50;;;;;;5032627;28;20995;-75
2021/01/10 02:25:26;;;;;;;3.65;3.28;;;22.80;29.50;;;;;;5032692;28;20402;-73
2021/01/10 02:27:52;;;;;;;3.70;3.25;;;22.80;29.50;;;;;;5031780;28;20387;-61
2021/01/10 02:30:20;;;;;;;3.67;3.30;;;22.80;29.60;;;;;;5032274;28;20395;-62
2021/01/10 02:32:50;;;;;;;4.20;3.33;;;22.80;29.50;;;;;;5031701;28;20418;-66
2021/01/10 02:35:16;;;;;;;3.88;3.40;;;22.70;29.50;;;;;;5031682;28;20922;-61
2021/01/10 02:37:54;;;;;;;3.47;3.17;;;22.80;29.50;;;;;;5031854;28;20402;-63
2021/01/10 02:40:45;;;;;;;3.63;3.13;;;22.70;29.50;;;;;;5032122;28;20488;-61
2021/01/10 02:43:16;;;;;;;3.83;3.40;;;22.70;29.60;;;;;;5032009;28;20510;-65
2021/01/10 02:45:45;;;;;;;3.88;3.47;;;22.60;30.20;;;;;;5031780;28;20395;-75
2021/01/10 02:48:11;;;;;;;3.50;3.20;;;22.60;30.00;;;;;;5031767;28;20423;-62
2021/01/10 02:50:38;;;;;;;3.78;3.25;;;22.60;29.90;;;;;;5030624;28;20437;-59
2021/01/10 02:53:04;;;;;;;3.70;3.30;;;22.50;29.70;;;;;;5031028;28;20399;-59
2021/01/10 02:55:30;;;;;;;4.80;3.20;;;22.60;30.50;;;;;;5027506;28;20399;-59
2021/01/10 02:58:03;;;;;;;4.15;3.20;;;22.50;30.00;;;;;;5029591;28;20437;-66
2021/01/10 03:00:31;;;;;;;4.35;3.55;;;22.50;30.20;;;;;;5031430;28;20391;-72
2021/01/10 03:02:59;;;;;;;4.45;3.50;;;22.50;30.10;;;;;;5031577;28;20745;-75
2021/01/10 03:05:27;;;;;;;4.40;4.00;;;22.40;29.80;;;;;;5031206;28;20394;-60
2021/01/10 03:07:55;;;;;;;3.90;3.47;;;22.30;29.70;;;;;;5031771;28;20398;-68
2021/01/10 03:10:21;;;;;;;3.90;3.50;;;22.20;29.70;;;;;;5033271;28;20383;-83
2021/01/10 03:12:48;;;;;;;4.10;3.65;;;22.20;29.60;;;;;;5033317;28;20422;-81
2021/01/10 03:15:14;;;;;;;3.80;3.40;;;22.20;29.70;;;;;;5032983;28;20387;-84
2021/01/10 03:17:45;;;;;;;4.00;3.60;;;22.10;29.50;;;;;;5033152;28;20860;-70
2021/01/10 03:20:13;;;;;;;3.58;3.28;;;22.10;29.60;;;;;;5032057;28;20468;-83
2021/01/10 03:22:39;;;;;;;4.35;3.50;;;22.10;29.40;;;;;;5032042;28;20814;-76
2021/01/10 03:25:07;;;;;;;3.80;3.40;;;22.00;29.30;;;;;;5033320;28;20463;-78
2021/01/10 03:27:34;;;;;;;3.90;3.47;;;22.00;29.30;;;;;;5032212;28;20520;-80
2021/01/10 03:30:00;;;;;;;4.30;3.63;;;22.00;29.40;;;;;;5032634;28;20409;-81
2021/01/10 03:32:26;;;;;;;3.88;3.40;;;22.00;29.40;;;;;;5032607;28;20481;-77
2021/01/10 03:34:52;;;;;;;4.00;3.60;;;21.90;29.30;;;;;;5032595;28;20433;-76
2021/01/10 03:37:17;;;;;;;4.00;3.60;;;21.90;29.30;;;;;;5032569;28;20399;-81
2021/01/10 03:39:43;;;;;;;4.03;3.63;;;21.90;29.30;;;;;;5031568;28;20430;-68
2021/01/10 03:42:09;;;;;;;4.70;3.67;;;21.90;29.30;;;;;;5032008;28;20394;-79
2021/01/10 03:44:34;;;;;;;4.22;3.53;;;21.80;29.20;;;;;;5032668;28;20387;-79
2021/01/10 03:47:00;;;;;;;4.00;3.60;;;21.80;29.20;;;;;;5032704;28;20384;-68
2021/01/10 03:49:26;;;;;;;4.10;3.70;;;21.80;29.30;;;;;;5032582;28;20407;-78
2021/01/10 03:51:52;;;;;;;4.07;3.67;;;21.80;29.20;;;;;;5032282;28;20476;-75
2021/01/10 03:54:17;;;;;;;3.80;3.50;;;21.80;29.20;;;;;;5032717;28;20387;-77
2021/01/10 03:56:43;;;;;;;4.22;3.75;;;21.70;29.10;;;;;;5032530;28;20391;-77
2021/01/10 03:59:09;;;;;;;4.10;3.70;;;21.70;29.40;;;;;;5032494;28;20426;-76
2021/01/10 04:01:34;;;;;;;3.58;3.28;;;21.70;29.20;;;;;;5032719;28;20384;-79
2021/01/10 04:04:00;;;;;;;3.93;3.53;;;21.60;29.30;;;;;;5032037;28;20391;-81
2021/01/10 04:06:27;;;;;;;4.10;3.70;;;21.60;29.20;;;;;;5032163;28;20383;-58
2021/01/10 04:08:53;;;;;;;4.10;3.70;;;21.60;29.20;;;;;;5031191;28;20925;-80
2021/01/10 04:11:20;;;;;;;3.88;3.50;;;21.60;29.20;;;;;;5032694;28;20425;-80
2021/01/10 04:13:46;;;;;;;3.97;3.65;;;21.50;29.10;;;;;;5032324;28;20487;-82
2021/01/10 04:16:12;;;;;;;4.27;3.83;;;21.60;29.20;;;;;;5031303;28;20812;-78
2021/01/10 04:18:38;;;;;;;4.10;3.70;;;21.50;29.10;;;;;;5032400;28;20471;-77
2021/01/10 04:21:04;;;;;;;4.10;3.70;;;21.50;29.20;;;;;;5031334;28;20421;-81
2021/01/10 04:23:30;;;;;;;4.20;3.80;;;21.50;29.10;;;;;;5032157;28;20383;-77
2021/01/10 04:25:56;;;;;;;4.68;4.00;;;21.40;29.50;;;;;;5031843;28;20399;-75
2021/01/10 04:28:21;;;;;;;4.10;3.70;;;21.40;29.10;;;;;;5027840;28;20444;-76
2021/01/10 04:30:47;;;;;;;4.03;3.63;;;21.40;29.10;;;;;;5031958;28;20398;-71
2021/01/10 04:33:13;;;;;;;4.30;3.90;;;21.40;29.10;;;;;;5032284;28;20477;-77
2021/01/10 04:35:38;;;;;;;4.28;3.88;;;21.40;29.00;;;;;;5032240;28;20395;-79
2021/01/10 04:38:04;;;;;;;4.03;3.63;;;21.40;29.00;;;;;;5032410;28;20387;-81
2021/01/10 04:40:30;;;;;;;3.90;3.50;;;21.40;29.10;;;;;;5036253;28;20453;-80
2021/01/10 04:42:56;;;;;;;3.97;3.58;;;21.30;29.10;;;;;;5035872;28;20748;-75
2021/01/10 04:45:26;;;;;;;3.57;3.27;;;21.40;29.30;;;;;;5036058;28;20414;-80
2021/01/10 04:47:52;;;;;;;3.30;3.00;;;21.50;29.20;;;;;;5035528;28;20399;-80
2021/01/10 04:50:18;;;;;;;3.70;3.40;;;21.50;29.30;;;;;;5035915;28;20383;-81
2021/01/10 04:52:45;;;;;;;3.87;3.43;;;21.60;29.40;;;;;;5035802;28;20395;-78
2021/01/10 04:55:13;;;;;;;3.53;3.22;;;21.60;29.20;;;;;;5035846;28;20383;-80
2021/01/10 04:57:41;;;;;;;4.03;3.13;;;21.70;29.20;;;;;;5035825;28;20387;-76
2021/01/10 05:00:10;;;;;;;3.40;3.10;;;21.70;29.10;;;;;;5035316;28;20422;-79
2021/01/10 05:02:47;;;;;;;3.47;3.17;;;21.70;29.20;;;;;;5035583;28;20391;-80
2021/01/10 05:05:14;;;;;;;3.50;3.20;;;21.70;29.10;;;;;;5035687;28;20410;-81
2021/01/10 05:07:43;;;;;;;3.42;3.13;;;21.70;29.10;;;;;;5035641;28;20391;-80
2021/01/10 05:10:09;;;;;;;3.78;3.38;;;21.70;29.00;;;;;;5035087;28;20929;-77
2021/01/10 05:12:35;;;;;;;3.50;3.20;;;21.80;29.10;;;;;;5034646;28;20434;-73
2021/01/10 05:15:00;;;;;;;4.00;3.47;;;21.80;29.10;;;;;;5035151;28;20525;-77
2021/01/10 05:17:26;;;;;;;3.55;3.25;;;21.80;29.00;;;;;;5034982;28;20383;-78
2021/01/10 05:19:53;;;;;;;3.70;3.30;;;21.80;29.00;;;;;;5034501;28;20419;-58
2021/01/10 05:22:20;;;;;;;3.50;3.20;;;21.80;29.00;;;;;;5035076;28;20859;-71
2021/01/10 05:24:49;;;;;;;3.70;3.40;;;21.80;29.00;;;;;;5034739;28;20733;-76
2021/01/10 05:27:15;;;;;;;3.60;3.30;;;21.80;28.90;;;;;;5034685;28;20391;-71
2021/01/10 05:29:45;;;;;;;3.67;3.38;;;21.80;28.90;;;;;;5034988;28;20394;-74
2021/01/10 05:32:11;;;;;;;3.67;3.37;;;21.80;29.00;;;;;;5033838;28;20897;-78
2021/01/10 05:34:37;;;;;;;3.67;3.38;;;21.80;29.00;;;;;;5034636;28;20488;-72
2021/01/10 05:37:15;;;;;;;3.47;3.17;;;21.80;29.00;;;;;;5034251;28;20399;-74
2021/01/10 05:39:45;;;;;;;3.50;3.20;;;21.80;28.90;;;;;;5034054;28;20473;-78
2021/01/10 05:42:12;;;;;;;3.72;3.33;;;21.80;28.90;;;;;;5034206;28;20383;-74
2021/01/10 05:44:43;;;;;;;3.33;3.03;;;21.80;28.90;;;;;;5034158;28;20525;-77
2021/01/10 05:47:11;;;;;;;3.63;3.33;;;21.80;28.90;;;;;;5034273;28;20392;-65
2021/01/10 05:49:48;;;;;;;3.55;3.25;;;21.80;28.90;;;;;;5033351;28;20455;-71
2021/01/10 05:52:15;;;;;;;3.72;3.42;;;21.80;28.90;;;;;;5033984;28;20399;-66
2021/01/10 05:54:45;;;;;;;3.40;3.10;;;21.80;28.90;;;;;;5034377;28;20379;-72
2021/01/10 05:57:15;;;;;;;3.67;3.33;;;21.80;28.90;;;;;;5034508;28;20403;-65
2021/01/10 05:59:44;;;;;;;3.47;3.17;;;21.80;28.90;;;;;;5034727;28;20407;-76
2021/01/10 06:02:10;;;;;;;3.53;3.22;;;21.80;28.80;;;;;;5034307;28;20509;-81
2021/01/10 06:04:36;;;;;;;3.60;3.30;;;21.80;28.80;;;;;;5034732;28;20421;-71
2021/01/10 06:07:02;;;;;;;3.40;3.10;;;21.80;28.80;;;;;;5034419;28;20771;-81
2021/01/10 06:09:28;;;;;;;3.58;3.28;;;21.80;28.80;;;;;;5034800;28;20414;-75
2021/01/10 06:11:54;;;;;;;3.63;3.33;;;21.80;28.80;;;;;;5033907;28;20871;-79
2021/01/10 06:14:24;;;;;;;3.60;3.30;;;21.80;28.80;;;;;;5033030;28;20482;-77
2021/01/10 06:16:57;;;;;;;3.85;3.55;;;21.80;28.80;;;;;;5034088;28;20481;-77
2021/01/10 06:19:33;;;;;;;3.80;3.50;;;21.80;28.80;;;;;;5034099;28;20644;-74
2021/01/10 06:22:00;;;;;;;3.42;3.13;;;21.80;28.70;;;;;;5033604;28;20419;-78
2021/01/10 06:24:33;;;;;;;3.60;3.30;;;21.80;28.70;;;;;;5034079;28;20757;-80
2021/01/10 06:27:06;;;;;;;3.63;3.33;;;21.80;28.70;;;;;;5034111;28;20485;-80
2021/01/10 06:29:39;;;;;;;4.00;3.60;;;21.80;28.70;;;;;;5033530;28;20386;-76
2021/01/10 06:32:12;;;;;;;3.50;3.20;;;21.80;28.70;;;;;;5033550;28;20387;-77
2021/01/10 06:34:42;;;;;;;3.55;3.25;;;21.80;28.70;;;;;;5033805;28;20402;-75
2021/01/10 06:37:09;;;;;;;3.63;3.33;;;21.80;28.60;;;;;;5033643;28;20867;-80
2021/01/10 06:39:44;;;;;;;3.60;3.30;;;21.80;28.70;;;;;;5033473;28;20752;-78
2021/01/10 06:42:11;;;;;;;3.60;3.30;;;21.80;28.70;;;;;;5032948;28;20427;-69
2021/01/10 06:44:39;;;;;;;3.72;3.30;;;21.80;28.60;;;;;;5033658;28;20395;-69
2021/01/10 06:47:06;;;;;;;3.50;3.20;;;21.80;28.60;;;;;;5033059;28;20868;-80
2021/01/10 06:49:32;;;;;;;3.60;3.30;;;21.80;28.60;;;;;;5033100;28;20391;-59
2021/01/10 06:52:01;;;;;;;3.50;3.20;;;21.80;28.60;;;;;;5031814;28;20479;-58
2021/01/10 06:54:27;;;;;;;3.40;3.10;;;21.80;28.70;;;;;;5032703;28;20518;-62
2021/01/10 06:56:54;;;;;;;3.40;3.10;;;21.80;28.60;;;;;;5033082;28;20439;-73
2021/01/10 06:59:26;;;;;;;3.50;3.20;;;21.80;28.60;;;;;;5033095;28;20442;-71
2021/01/10 07:01:52;;;;;;;3.70;3.40;;;21.80;28.60;;;;;;5032088;28;20466;-73
2021/01/10 07:04:24;;;;;;;3.60;3.30;;;21.80;28.60;;;;;;5031714;28;21047;-75
2021/01/10 07:06:53;;;;;;;3.60;3.30;;;21.80;28.60;;;;;;5033206;28;20867;-72
2021/01/10 07:09:21;;;;;;;3.67;3.38;;;21.80;28.50;;;;;;5033096;28;20473;-76
2021/01/10 07:11:47;;;;;;;3.65;3.35;;;21.80;28.50;;;;;;5033225;28;20394;-77
2021/01/10 07:14:13;;;;;;;3.42;3.13;;;21.80;28.50;;;;;;5032940;28;20388;-80
2021/01/10 07:16:40;;;;;;;3.50;3.20;;;21.80;28.50;;;;;;5032257;28;20395;-76
2021/01/10 07:19:07;;;;;;;3.75;3.45;;;21.80;28.50;;;;;;5032895;28;20415;-80
2021/01/10 07:21:43;;;;;;;3.83;3.53;;;21.80;28.50;;;;;;5033186;28;20422;-81
2021/01/10 07:24:26;;;;;;;3.70;3.40;;;21.80;28.50;;;;;;5032612;28;20468;-81
2021/01/10 07:26:54;;;;;;;4.10;3.70;;;21.80;28.50;;;;;;5031965;28;20406;-78
2021/01/10 07:29:42;;;;;;;3.70;3.40;;;21.70;28.50;;;;;;5032873;28;20871;-72
2021/01/10 07:32:11;;;;;;;3.58;3.28;;;21.70;28.40;;;;;;5032325;28;20387;-79
2021/01/10 07:34:57;;;;;;;3.53;3.22;;;21.70;28.40;;;;;;5032733;28;20480;-75
2021/01/10 07:37:25;;;;;;;4.30;3.90;;;21.70;28.50;;;;;;5032266;28;20742;-76
2021/01/10 07:39:59;;;;;;;6.18;3.75;;;21.70;28.70;;;;;;5005841;28;20486;-79
2021/01/10 07:42:58;;;;;;;4.40;4.00;;;21.60;28.40;;;;;;5028891;28;20457;-67
2021/01/10 07:45:37;;;;;;;4.40;4.00;;;21.60;28.30;;;;;;5032628;28;20398;-77
2021/01/10 07:48:04;;;;;;;4.18;3.78;;;21.50;28.20;;;;;;5032091;28;20402;-73
2021/01/10 07:50:30;;;;;;;4.28;3.88;;;21.50;28.20;;;;;;5032356;28;20433;-79
2021/01/10 07:52:58;;;;;;;4.10;3.70;;;21.30;28.50;;;;;;5030809;28;20787;-73
2021/01/10 07:55:31;;;;;;;4.35;3.95;;;21.40;28.60;;;;;;5032160;28;20387;-66
2021/01/10 07:58:02;;;;;;;4.47;3.97;;;21.30;28.70;;;;;;5031387;28;20395;-77
2021/01/10 08:00:35;;;;;;;4.70;4.00;;;21.30;28.70;;;;;;5032039;28;20419;-77
2021/01/10 08:03:02;;;;;;;4.30;3.90;;;21.30;28.70;;;;;;5032577;28;20387;-80
2021/01/10 08:05:32;;;;;;;4.38;3.97;;;21.30;28.60;;;;;;5032516;28;20427;-77
2021/01/10 08:08:00;;;;;;;4.50;4.10;;;21.30;28.70;;;;;;5031300;28;20395;-74
2021/01/10 08:10:47;;;;;;;4.38;3.97;;;21.30;28.80;;;;;;5032097;28;20482;-68
2021/01/10 08:13:44;;;;;;;4.57;4.18;;;21.30;28.70;;;;;;5031518;28;20430;-59
2021/01/10 08:16:32;;;;;;;5.07;4.10;;;21.30;28.70;;;;;;5034651;28;20440;-69
2021/01/10 08:19:03;;;;;;;5.35;4.22;;;21.30;28.80;;;;;;5035597;28;20447;-63
2021/01/10 08:21:30;;;;;;;4.50;3.70;;;21.30;28.90;;;;;;5035478;28;20395;-61
2021/01/10 08:23:57;;;;;;;5.25;3.80;;;21.30;29.20;;;;;;5034078;28;20517;-67
2021/01/10 08:26:23;;;;;;;4.30;3.90;;;21.30;29.20;;;;;;5035387;28;20921;-59
2021/01/10 08:29:00;;;;;;;4.65;4.13;;;21.30;29.20;;;;;;5035506;28;20422;-65
2021/01/10 08:31:28;;;;;;;4.28;3.88;;;21.30;29.00;;;;;;5035836;28;20480;-62
2021/01/10 08:34:04;;;;;;;4.40;3.80;;;21.30;29.30;;;;;;5035166;28;20949;-60
2021/01/10 08:36:31;;;;;;;4.93;3.90;;;21.20;29.20;;;;;;5035486;28;20383;-70
2021/01/10 08:38:58;;;;;;;4.55;4.10;;;21.20;29.20;;;;;;5035406;28;20410;-69
2021/01/10 08:41:37;;;;;;;4.30;3.90;;;21.20;29.10;;;;;;5035661;28;20465;-73
2021/01/10 08:44:10;;;;;;;4.45;4.00;;;21.20;29.10;;;;;;5034863;28;20879;-62
2021/01/10 08:46:38;;;;;;;5.35;4.05;;;21.20;29.30;;;;;;5035726;28;20414;-68
2021/01/10 08:49:04;;;;;;;5.93;3.97;;;21.10;29.30;;;;;;5035339;28;20406;-71
2021/01/10 08:51:34;;;;;;;7.37;4.13;;;21.10;29.60;;;;;;5035464;28;20392;-72
2021/01/10 08:54:13;;;;;;;6.25;3.72;;;21.10;29.80;;;;;;5034858;28;20752;-68
2021/01/10 08:56:41;;;;;;;5.32;3.92;;;21.10;29.80;;;;;;5035006;28;20379;-63
2021/01/10 08:59:07;;;;;;;4.95;3.83;;;21.10;29.70;;;;;;5034748;28;20486;-61
2021/01/10 09:01:33;;;;;;;5.03;3.92;;;21.00;29.50;;;;;;5035355;28;20629;-72
2021/01/10 09:04:09;;;;;;;4.40;4.00;;;21.10;29.40;;;;;;5035102;28;20423;-79
2021/01/10 09:06:38;;;;;;;4.88;4.15;;;21.10;29.50;;;;;;5034382;28;20418;-74
2021/01/10 09:09:21;;;;;;;5.00;4.15;;;21.10;29.50;;;;;;5035363;28;20394;-71
2021/01/10 09:12:04;;;;;;;4.65;4.10;;;21.10;29.40;;;;;;5035187;28;20383;-73
2021/01/10 09:14:40;;;;;;;4.68;4.00;;;21.00;29.40;;;;;;5035645;28;20379;-80
2021/01/10 09:17:07;;;;;;;4.50;4.10;;;21.00;29.50;;;;;;5035070;28;20449;-79
2021/01/10 09:19:34;;;;;;;5.73;4.10;;;21.00;29.40;;;;;;5034304;28;20423;-75
2021/01/10 09:22:01;;;;;;;6.40;3.70;;;21.10;29.60;;;;;;5034694;28;20459;-77
2021/01/10 09:24:31;;;;;;;4.45;3.80;;;21.00;29.60;;;;;;5033933;28;20395;-76
2021/01/10 09:27:14;;;;;;;5.18;4.00;;;21.00;29.80;;;;;;5034544;28;20395;-65
2021/01/10 09:29:41;;;;;;;5.30;3.80;;;21.00;29.80;;;;;;5035109;28;20423;-69
2021/01/10 09:32:08;;;;;;;4.32;3.45;;;21.10;29.80;;;;;;5033860;28;20517;-61
2021/01/10 09:34:34;;;;;;;18.00;3.95;;;21.10;29.70;;;;;;5033984;28;20411;-58
2021/01/10 09:37:05;;;;;;;15.90;4.43;;;21.10;30.00;;;;;;5033592;28;20379;-58
2021/01/10 09:39:42;;;;;;;9.35;4.22;;;21.20;30.00;;;;;;5033888;28;20472;-65
2021/01/10 09:42:09;;;;;;;9.85;4.32;;;21.20;29.70;;;;;;5032294;28;20387;-61
2021/01/10 09:44:35;;;;;;;10.65;3.80;;;21.10;29.60;;;;;;5033851;28;20481;-76
2021/01/10 09:47:01;;;;;;;7.90;4.10;;;21.10;29.60;;;;;;5033756;28;20498;-59
2021/01/10 09:49:31;;;;;;;7.72;3.90;;;21.10;29.60;;;;;;5033748;28;20386;-62
2021/01/10 09:52:10;;;;;;;6.73;3.60;;;21.20;29.60;;;;;;5033729;28;20421;-70
2021/01/10 09:54:36;;;;;;;7.20;3.60;;;21.20;29.40;;;;;;5033295;28;20410;-70
2021/01/10 09:57:10;;;;;;;4.90;3.60;;;21.20;29.40;;;;;;5033041;28;20391;-80
2021/01/10 09:59:42;;;;;;;4.55;3.70;;;21.20;29.30;;;;;;5034056;28;20419;-79
2021/01/10 10:02:09;;;;;;;6.22;3.60;;;21.30;29.30;;;;;;5033870;28;20393;-76
2021/01/10 10:04:35;;;;;;;4.35;3.80;;;21.30;29.30;;;;;;5034208;28;20427;-76
2021/01/10 10:07:01;;;;;;;5.05;3.50;;;21.30;29.20;;;;;;5032780;28;20553;-62
2021/01/10 10:09:48;;;;;;;5.40;3.63;;;21.30;29.20;;;;;;5033550;28;20396;-80
2021/01/10 10:12:15;;;;;;;5.10;3.60;;;21.30;29.10;;;;;;5032692;28;20394;-76
2021/01/10 10:15:08;;;;;;;5.82;4.00;;;21.30;29.00;;;;;;5033115;28;20907;-67
2021/01/10 10:17:38;;;;;;;4.68;3.53;;;21.20;29.00;;;;;;5032372;28;20874;-65
2021/01/10 10:20:09;;;;;;;4.93;3.83;;;21.20;29.00;;;;;;5033112;28;20423;-82
2021/01/10 10:22:38;;;;;;;6.18;3.70;;;21.20;29.20;;;;;;5034112;28;20394;-84
2021/01/10 10:25:09;;;;;;;5.07;3.70;;;21.20;29.20;;;;;;5028770;28;20407;-84
2021/01/10 10:27:53;;;;;;;6.05;3.78;;;21.20;29.20;;;;;;5033605;28;20430;-82
2021/01/10 10:30:19;;;;;;;4.63;3.80;;;21.30;29.10;;;;;;5032535;28;20482;-82
2021/01/10 10:32:44;;;;;;;4.60;4.07;;;21.30;29.10;;;;;;5033662;28;20474;-83
2021/01/10 10:35:10;;;;;;;5.43;3.70;;;21.30;29.00;;;;;;5032415;28;20395;-63
2021/01/10 10:37:35;;;;;;;4.55;3.80;;;21.30;29.00;;;;;;5032440;28;20391;-88
2021/01/10 10:40:03;;;;;;;4.83;4.00;;;21.30;29.00;;;;;;5034028;28;20430;-86
2021/01/10 10:42:29;;;;;;;4.20;3.80;;;21.30;29.00;;;;;;5033873;28;20387;-85
2021/01/10 10:44:55;;;;;;;4.28;3.88;;;21.30;28.90;;;;;;5033967;28;20390;-79
2021/01/10 10:47:22;;;;;;;4.28;3.80;;;21.30;28.90;;;;;;5032201;28;21391;-86
2021/01/10 10:49:47;;;;;;;4.87;3.90;;;21.30;28.90;;;;;;5033920;28;20387;-86
2021/01/10 10:52:13;;;;;;;5.45;4.00;;;21.30;28.90;;;;;;5032160;28;20395;-82
2021/01/10 10:54:40;;;;;;;4.30;3.70;;;21.30;28.80;;;;;;5032969;28;20393;-87
2021/01/10 10:57:07;;;;;;;4.32;3.90;;;21.30;28.80;;;;;;5032756;28;20485;-87
2021/01/10 10:59:33;;;;;;;4.50;4.10;;;21.30;29.30;;;;;;5014016;28;20428;-85
2021/01/10 11:01:58;;;;;;;4.93;3.65;;;21.30;28.80;;;;;;5029297;28;20401;-83
2021/01/10 11:04:24;;;;;;;5.10;4.10;;;21.30;28.80;;;;;;5013881;28;20453;-86
2021/01/10 11:06:50;;;;;;;4.00;3.60;;;21.30;28.80;;;;;;5013895;28;20395;-85
2021/01/10 11:09:15;;;;;;;5.70;4.07;;;21.30;28.70;;;;;;5032179;28;20395;-87
2021/01/10 11:11:46;;;;;;;4.30;3.90;;;21.30;28.80;;;;;;5033351;28;20437;-86
2021/01/10 11:14:13;;;;;;;5.28;4.15;;;21.20;28.70;;;;;;5031842;28;20405;-87
2021/01/10 11:16:41;;;;;;;4.67;4.17;;;21.20;28.70;;;;;;5033082;28;20406;-83
2021/01/10 11:19:07;;;;;;;5.45;4.20;;;21.10;28.90;;;;;;5032761;28;20438;-86
2021/01/10 11:21:39;;;;;;;8.90;5.27;;;21.10;28.90;;;;;;5032645;28;20415;-70
2021/01/10 11:24:07;;;;;;;6.30;4.40;;;21.10;29.70;;;;;;5031641;28;20922;-80
2021/01/10 11:26:33;;;;;;;8.13;5.00;;;21.10;29.40;;;;;;5031968;28;20485;-60
2021/01/10 11:29:00;;;;;;;7.00;4.47;;;21.20;29.50;;;;;;5032050;28;20394;-58
2021/01/10 11:31:26;;;;;;;6.13;4.57;;;21.20;29.20;;;;;;5031808;28;20387;-58
2021/01/10 11:33:53;;;;;;;6.55;4.50;;;21.20;29.20;;;;;;5031093;28;20415;-59
2021/01/10 11:36:19;;;;;;;6.73;4.63;;;21.20;29.40;;;;;;5031675;28;20399;-67
2021/01/10 11:38:56;;;;;;;8.57;4.93;;;21.20;29.30;;;;;;5032228;28;20991;-69
2021/01/10 11:41:23;;;;;;;7.10;4.68;;;21.10;29.50;;;;;;5032057;28;20785;-79
2021/01/10 11:43:49;;;;;;;8.60;4.97;;;21.20;29.80;;;;;;5031509;28;20925;-60
2021/01/10 11:46:16;;;;;;;7.35;4.65;;;21.20;30.10;;;;;;5031372;28;20403;-58
2021/01/10 11:48:43;;;;;;;8.02;5.10;;;21.20;30.00;;;;;;5031359;28;20395;-81
2021/01/10 11:51:11;;;;;;;7.38;4.65;;;21.20;29.90;;;;;;5031717;28;20398;-67
2021/01/10 11:53:38;;;;;;;5.53;4.57;;;21.20;29.90;;;;;;5029701;28;20744;-59
2021/01/10 11:56:04;;;;;;;6.38;4.32;;;21.20;30.60;;;;;;5031221;28;20375;-67
2021/01/10 11:58:30;;;;;;;6.70;4.72;;;21.10;30.30;;;;;;5030182;28;20441;-66
2021/01/10 12:00:56;;;;;;;6.60;4.32;;;21.20;31.10;;;;;;5033670;28;20444;-69
2021/01/10 12:03:23;;;;;;;6.22;4.72;;;21.10;31.60;;;;;;5027514;28;20397;-73
2021/01/10 12:05:49;;;;;;;8.43;4.60;;;21.20;30.60;;;;;;5034247;28;20388;-62
2021/01/10 12:08:15;;;;;;;7.32;4.60;;;21.20;30.80;;;;;;5033438;28;20390;-60
2021/01/10 12:10:41;;;;;;;4.80;4.20;;;21.10;31.00;;;;;;5033862;28;20872;-77
2021/01/10 12:13:08;;;;;;;7.63;4.70;;;21.10;30.60;;;;;;5030558;28;20399;-73
2021/01/10 12:15:35;;;;;;;7.97;4.70;;;21.20;30.70;;;;;;5032111;28;20390;-74
2021/01/10 12:18:05;;;;;;;6.55;4.80;;;21.20;31.50;;;;;;5031887;28;20383;-82
2021/01/10 12:20:32;;;;;;;6.78;4.53;;;21.20;32.50;;;;;;5031719;28;20424;-59
2021/01/10 12:22:58;;;;;;;7.60;4.63;;;21.20;35.60;;;;;;5030937;28;20487;-58
2021/01/10 12:25:25;;;;;;;6.90;4.75;;;21.30;35.50;;;;;;5031936;28;20450;-79
2021/01/10 12:27:51;;;;;;;7.50;4.45;;;21.30;32.40;;;;;;5031633;28;20391;-62
2021/01/10 12:30:17;;;;;;;6.30;4.47;;;21.20;32.40;;;;;;5030148;28;20465;-64
2021/01/10 12:32:43;;;;;;;7.03;4.45;;;21.30;31.90;;;;;;5030392;28;20835;-58
2021/01/10 12:35:11;;;;;;;5.60;4.20;;;21.20;30.90;;;;;;5030352;28;20399;-59
2021/01/10 12:37:37;;;;;;;6.63;4.32;;;21.20;31.10;;;;;;5030535;28;20448;-64
2021/01/10 12:40:05;;;;;;;5.57;4.20;;;21.20;31.10;;;;;;5030814;28;20446;-76
2021/01/10 12:42:31;;;;;;;5.38;4.32;;;21.20;31.40;;;;;;5030003;28;20419;-58
2021/01/10 12:44:56;;;;;;;6.20;4.18;;;21.20;30.90;;;;;;5030243;28;20431;-58
2021/01/10 12:47:22;;;;;;;5.90;4.20;;;21.20;30.80;;;;;;5030630;28;20406;-74
2021/01/10 12:49:48;;;;;;;5.97;4.28;;;21.10;30.40;;;;;;5030627;28;20924;-58
2021/01/10 12:52:14;;;;;;;6.23;4.30;;;21.10;30.40;;;;;;5030565;28;20403;-58